createdAt,value
2018-08-28T00:02:40.187Z,15.10
2018-08-28T00:05:20.677Z,15.10
2018-08-28T00:08:01.409Z,15.20
2018-08-28T00:10:41.994Z,15.20
2018-08-28T00:13:23.423Z,15.20
2018-08-28T00:16:06.742Z,15.10
2018-08-28T00:18:47.303Z,15.10
2018-08-28T00:21:27.651Z,15.20
2018-08-28T00:24:10.251Z,15.10
2018-08-28T00:26:54.538Z,15.20
2018-08-28T00:29:37.879Z,15.20
2018-08-28T00:32:19.768Z,15.20
2018-08-28T00:35:00.172Z,15.20
2018-08-28T00:37:40.783Z,15.20
2018-08-28T00:40:21.328Z,15.20
2018-08-28T00:43:01.957Z,15.30
2018-08-28T00:45:42.511Z,15.30
2018-08-28T00:48:23.145Z,15.30
2018-08-28T00:51:04.808Z,15.30
2018-08-28T00:53:45.199Z,15.30
2018-08-28T00:56:25.676Z,15.40
2018-08-28T00:59:07.904Z,15.30
2018-08-28T01:01:48.579Z,15.40
2018-08-28T01:04:29.096Z,15.40
2018-08-28T01:07:09.629Z,15.40
2018-08-28T01:09:50.113Z,15.40
2018-08-28T01:12:30.599Z,15.50
2018-08-28T01:15:11.068Z,15.50
2018-08-28T01:17:51.549Z,15.50
2018-08-28T01:20:32.205Z,15.50
2018-08-28T01:23:12.668Z,15.50
2018-08-28T01:25:53.180Z,15.50
2018-08-28T01:28:34.664Z,15.50
2018-08-28T01:31:15.281Z,15.50
2018-08-28T01:33:55.796Z,15.50
2018-08-28T01:36:38.335Z,15.50
2018-08-28T01:39:18.818Z,15.50
2018-08-28T01:41:59.785Z,15.50
2018-08-28T01:44:40.880Z,15.50
2018-08-28T01:47:22.640Z,15.50
2018-08-28T01:50:03.660Z,15.50
2018-08-28T01:52:44.113Z,15.50
2018-08-28T01:55:24.675Z,15.50
2018-08-28T01:58:07.771Z,15.50
2018-08-28T02:00:48.975Z,15.50
2018-08-28T02:03:29.467Z,15.50
2018-08-28T02:06:09.883Z,15.50
2018-08-28T02:08:50.391Z,15.60
2018-08-28T02:11:31.411Z,15.60
2018-08-28T02:14:11.986Z,15.60
2018-08-28T02:16:52.465Z,15.60
2018-08-28T02:45:35.320Z,15.50
2018-08-28T02:48:15.796Z,15.60
2018-08-28T02:50:58.954Z,15.60
2018-08-28T02:53:39.385Z,15.60
2018-08-28T02:56:20.052Z,15.60
2018-08-28T02:59:00.649Z,15.60
2018-08-28T03:01:41.085Z,15.60
2018-08-28T03:04:21.708Z,15.70
2018-08-28T03:07:02.200Z,15.70
2018-08-28T03:09:42.749Z,15.80
2018-08-28T03:12:23.212Z,15.80
2018-08-28T03:15:03.668Z,15.80
2018-08-28T03:17:44.172Z,15.80
2018-08-28T03:20:25.916Z,15.90
2018-08-28T03:23:06.444Z,15.90
2018-08-28T03:25:47.404Z,15.90
2018-08-28T03:28:29.706Z,15.90
2018-08-28T03:31:10.184Z,15.90
2018-08-28T03:33:50.777Z,15.90
2018-08-28T03:36:32.149Z,16.00
2018-08-28T03:39:12.804Z,16.00
2018-08-28T03:41:55.424Z,16.00
2018-08-28T03:44:35.952Z,16.00
2018-08-28T03:47:16.570Z,16.00
2018-08-28T03:49:58.984Z,16.00
2018-08-28T03:52:39.531Z,16.00
2018-08-28T03:55:20.212Z,16.00
2018-08-28T03:58:00.752Z,16.00
2018-08-28T04:00:41.322Z,16.10
2018-08-28T04:03:21.840Z,16.10
2018-08-28T04:06:02.392Z,16.10
2018-08-28T04:08:42.929Z,16.10
2018-08-28T04:11:25.223Z,16.10
2018-08-28T04:14:05.745Z,16.10
2018-08-28T04:16:46.710Z,16.10
2018-08-28T04:19:30.195Z,16.10
2018-08-28T04:22:10.764Z,16.20
2018-08-28T04:24:51.305Z,16.20
2018-08-28T04:27:31.833Z,16.20
2018-08-28T04:30:12.413Z,16.20
2018-08-28T04:32:52.860Z,16.30
2018-08-28T04:35:33.209Z,16.30
2018-08-28T04:38:14.051Z,16.30
2018-08-28T04:40:58.113Z,16.30
2018-08-28T04:43:38.553Z,16.30
2018-08-28T04:46:19.187Z,16.40
2018-08-28T04:49:00.873Z,16.40
2018-08-28T04:51:42.316Z,16.40
2018-08-28T04:54:22.804Z,16.50
2018-08-28T04:57:03.361Z,16.40
2018-08-28T04:59:44.008Z,16.50
2018-08-28T05:02:29.606Z,16.40
2018-08-28T05:05:10.420Z,16.40
2018-08-28T05:07:51.014Z,16.40
2018-08-28T05:10:31.632Z,16.40
2018-08-28T05:13:12.119Z,16.40
2018-08-28T05:15:52.688Z,16.40
2018-08-28T05:18:33.345Z,16.40
2018-08-28T05:21:13.664Z,16.40
2018-08-28T05:23:58.029Z,16.40
2018-08-28T05:26:38.480Z,16.50
2018-08-28T05:29:18.956Z,16.50
2018-08-28T05:32:01.221Z,16.50
2018-08-28T05:34:41.690Z,16.60
2018-08-28T05:37:22.119Z,16.70
2018-08-28T05:40:02.536Z,16.80
2018-08-28T05:42:43.113Z,16.80
2018-08-28T05:45:24.992Z,16.90
2018-08-28T05:48:05.957Z,16.90
2018-08-28T05:50:46.317Z,17.00
2018-08-28T05:53:29.400Z,17.00
2018-08-28T05:56:10.619Z,17.00
2018-08-28T05:58:51.317Z,16.90
2018-08-28T06:01:31.932Z,17.00
2018-08-28T06:04:12.521Z,17.10
2018-08-28T06:06:53.162Z,17.20
2018-08-28T06:09:34.136Z,17.50
2018-08-28T06:12:14.691Z,17.70
2018-08-28T06:14:57.802Z,17.90
2018-08-28T06:17:38.331Z,18.10
2018-08-28T06:20:18.896Z,18.20
2018-08-28T06:23:00.765Z,18.40
2018-08-28T06:25:41.349Z,18.50
2018-08-28T06:28:21.860Z,18.60
2018-08-28T06:31:02.935Z,18.70
2018-08-28T06:33:43.760Z,18.70
2018-08-28T06:36:26.148Z,18.80
2018-08-28T06:39:09.134Z,18.80
2018-08-28T06:41:49.522Z,18.90
2018-08-28T06:44:30.749Z,19.00
2018-08-28T06:47:11.279Z,19.10
2018-08-28T06:49:51.808Z,19.20
2018-08-28T06:52:32.211Z,19.20
2018-08-28T06:55:12.744Z,19.20
2018-08-28T06:57:54.965Z,19.30
2018-08-28T07:00:35.433Z,19.30
2018-08-28T07:03:15.972Z,19.40
2018-08-28T07:05:59.545Z,19.40
2018-08-28T07:08:39.995Z,19.40
2018-08-28T07:11:20.392Z,19.60
2018-08-28T07:14:04.853Z,19.90
2018-08-28T07:16:45.360Z,20.20
2018-08-28T07:19:27.984Z,20.50
2018-08-28T07:22:08.485Z,20.70
2018-08-28T07:24:49.021Z,20.90
2018-08-28T07:27:31.002Z,21.10
2018-08-28T07:30:11.469Z,21.40
2018-08-28T07:32:52.025Z,21.50
2018-08-28T07:35:32.528Z,21.70
2018-08-28T07:38:13.090Z,21.80
2018-08-28T07:40:54.844Z,22.00
2018-08-28T07:43:35.904Z,22.20
2018-08-28T07:46:17.364Z,22.30
2018-08-28T07:48:59.341Z,22.50
2018-08-28T07:51:40.030Z,22.60
2018-08-28T07:54:20.624Z,22.80
2018-08-28T07:57:01.187Z,22.90
2018-08-28T07:59:41.688Z,23.10
2018-08-28T08:02:22.085Z,23.20
2018-08-28T08:05:02.615Z,23.40
2018-08-28T08:07:43.197Z,23.40
2018-08-28T08:10:25.046Z,23.40
2018-08-28T08:13:05.440Z,23.50
2018-08-28T08:15:46.127Z,23.70
2018-08-28T08:18:28.708Z,23.80
2018-08-28T08:21:09.055Z,23.80
2018-08-28T08:23:49.680Z,23.90
2018-08-28T08:26:30.544Z,24.00
2018-08-28T08:29:11.242Z,24.10
2018-08-28T08:31:51.620Z,24.20
2018-08-28T08:34:32.141Z,24.20
2018-08-28T08:37:13.104Z,24.10
2018-08-28T08:39:54.616Z,24.10
2018-08-28T08:42:35.269Z,24.30
2018-08-28T08:45:15.745Z,24.40
2018-08-28T08:47:59.246Z,24.20
2018-08-28T08:50:39.628Z,24.10
2018-08-28T08:53:20.138Z,24.10
2018-08-28T08:56:00.593Z,24.10
2018-08-28T08:58:41.108Z,24.20
2018-08-28T09:01:22.732Z,24.10
2018-08-28T09:04:03.634Z,24.10
2018-08-28T09:06:44.297Z,24.10
2018-08-28T09:09:27.966Z,24.10
2018-08-28T09:12:08.519Z,24.00
2018-08-28T09:14:48.913Z,24.00
2018-08-28T09:17:30.588Z,24.00
2018-08-28T09:20:11.136Z,23.90
2018-08-28T09:22:51.752Z,23.70
2018-08-28T09:25:33.335Z,23.70
2018-08-28T09:28:13.880Z,23.70
2018-08-28T09:30:55.984Z,23.60
2018-08-28T09:33:36.529Z,23.50
2018-08-28T09:36:17.269Z,23.40
2018-08-28T09:38:59.192Z,23.50
2018-08-28T09:41:39.669Z,23.50
2018-08-28T09:44:20.201Z,23.50
2018-08-28T09:47:00.828Z,23.40
2018-08-28T09:49:41.522Z,23.40
2018-08-28T09:52:22.459Z,23.50
2018-08-28T09:55:03.204Z,23.60
2018-08-28T09:57:43.834Z,23.60
2018-08-28T10:00:28.639Z,23.50
2018-08-28T10:03:09.533Z,23.50
2018-08-28T10:05:50.279Z,23.60
2018-08-28T10:08:30.820Z,23.60
2018-08-28T10:11:11.391Z,23.70
2018-08-28T10:13:52.009Z,23.70
2018-08-28T10:16:32.465Z,23.70
2018-08-28T10:19:13.009Z,23.70
2018-08-28T10:21:54.633Z,23.60
2018-08-28T10:24:35.167Z,23.60
2018-08-28T10:27:16.087Z,23.60
2018-08-28T10:29:59.358Z,23.60
2018-08-28T10:32:39.868Z,23.70
2018-08-28T10:35:20.414Z,23.70
2018-08-28T10:38:00.863Z,23.70
2018-08-28T10:40:41.733Z,23.60
2018-08-28T10:43:22.323Z,23.50
2018-08-28T10:46:33.584Z,23.40
2018-08-28T10:49:14.018Z,23.50
2018-08-28T10:51:57.934Z,23.50
2018-08-28T10:54:38.508Z,23.70
2018-08-28T10:57:22.906Z,23.80
2018-08-28T11:00:03.497Z,23.80
2018-08-28T11:02:44.551Z,23.80
2018-08-28T11:05:27.687Z,23.70
2018-08-28T11:08:08.759Z,23.70
2018-08-28T11:10:49.194Z,23.60
2018-08-28T11:13:30.577Z,23.60
2018-08-28T11:16:11.310Z,23.60
2018-08-28T11:18:51.712Z,23.60
2018-08-28T11:21:32.231Z,23.60
2018-08-28T11:24:13.689Z,23.50
2018-08-28T11:26:58.942Z,23.40
2018-08-28T11:29:39.501Z,23.20
2018-08-28T11:32:21.276Z,23.00
2018-08-28T11:35:01.744Z,23.00
2018-08-28T11:37:42.348Z,23.00
2018-08-28T11:40:22.909Z,22.90
2018-08-28T11:43:03.324Z,22.80
2018-08-28T11:45:43.959Z,22.70
2018-08-28T11:48:27.943Z,22.70
2018-08-28T11:51:08.331Z,22.90
2018-08-28T11:53:49.744Z,22.90
2018-08-28T11:56:30.689Z,22.90
2018-08-28T11:59:11.393Z,22.90
2018-08-28T12:01:52.054Z,23.00
2018-08-28T12:04:32.579Z,23.00
2018-08-28T12:07:13.182Z,23.00
2018-08-28T12:09:55.139Z,23.00
2018-08-28T12:12:35.575Z,22.90
2018-08-28T12:15:16.196Z,22.80
2018-08-28T12:17:59.954Z,22.70
2018-08-28T12:20:40.484Z,22.70
2018-08-28T12:23:21.144Z,22.60
2018-08-28T12:26:01.864Z,22.50
2018-08-28T12:28:42.384Z,22.70
2018-08-28T12:31:24.536Z,22.80
2018-08-28T12:34:05.405Z,23.00
2018-08-28T12:36:46.193Z,23.00
2018-08-28T12:39:29.677Z,23.20
2018-08-28T12:42:10.043Z,23.30
2018-08-28T12:44:50.565Z,23.20
2018-08-28T12:47:31.505Z,23.20
2018-08-28T12:50:11.928Z,23.10
2018-08-28T12:52:54.662Z,23.20
2018-08-28T12:55:35.329Z,23.30
2018-08-28T12:58:16.181Z,23.30
2018-08-28T13:00:58.992Z,23.40
2018-08-28T13:03:39.546Z,23.30
2018-08-28T13:06:22.034Z,23.30
2018-08-28T13:09:02.508Z,23.30
2018-08-28T13:12:03.728Z,23.30
2018-08-28T13:14:44.553Z,23.20
2018-08-28T13:17:26.437Z,23.10
2018-08-28T13:20:07.201Z,23.00
2018-08-28T13:22:48.116Z,22.90
2018-08-28T13:25:31.706Z,22.90
2018-08-28T13:28:14.444Z,22.80
2018-08-28T13:30:56.202Z,22.80
2018-08-28T13:33:36.650Z,22.70
2018-08-28T13:36:17.346Z,22.70
2018-08-28T13:39:00.251Z,22.80
2018-08-28T13:41:40.799Z,22.70
2018-08-28T13:44:30.363Z,22.60
2018-08-28T13:47:11.513Z,22.50
2018-08-28T13:49:51.998Z,22.40
2018-08-28T13:52:32.563Z,22.40
2018-08-28T13:55:13.254Z,22.40
2018-08-28T13:57:53.788Z,22.30
2018-08-28T14:00:34.646Z,22.30
2018-08-28T14:03:16.219Z,22.30
2018-08-28T14:05:59.004Z,22.40
2018-08-28T14:08:39.515Z,22.40
2018-08-28T14:11:20.973Z,22.40
2018-08-28T14:14:02.258Z,22.40
2018-08-28T14:16:42.836Z,22.40
2018-08-28T14:19:23.857Z,22.40
2018-08-28T14:22:04.724Z,22.40
2018-08-28T14:24:45.648Z,22.40
2018-08-28T14:27:29.050Z,22.40
2018-08-28T14:30:09.621Z,22.40
2018-08-28T14:32:50.543Z,22.40
2018-08-28T14:35:32.438Z,22.40
2018-08-28T14:38:14.026Z,22.30
2018-08-28T14:40:56.342Z,22.40
2018-08-28T14:43:36.928Z,22.50
2018-08-28T14:46:17.537Z,22.50
2018-08-28T14:49:01.440Z,22.50
2018-08-28T14:51:42.009Z,22.50
2018-08-28T14:54:22.805Z,22.40
2018-08-28T14:57:05.001Z,22.40
2018-08-28T14:59:45.475Z,22.50
2018-08-28T15:02:27.209Z,22.50
2018-08-28T15:05:09.689Z,22.40
2018-08-28T15:07:51.301Z,22.40
2018-08-28T15:10:32.209Z,22.40
2018-08-28T15:13:12.656Z,22.40
2018-08-28T15:15:53.889Z,22.50
2018-08-28T15:18:35.050Z,22.50
2018-08-28T15:21:15.678Z,22.50
2018-08-28T15:23:57.360Z,22.50
2018-08-28T15:26:38.296Z,22.40
2018-08-28T15:29:18.716Z,22.40
2018-08-28T15:32:01.617Z,22.40
2018-08-28T15:34:42.416Z,22.40
2018-08-28T15:37:23.437Z,22.30
2018-08-28T15:40:04.534Z,22.30
2018-08-28T15:42:45.189Z,22.30
2018-08-28T15:45:26.484Z,22.30
2018-08-28T15:48:07.600Z,22.40
2018-08-28T15:50:48.196Z,22.40
2018-08-28T15:53:30.948Z,22.30
2018-08-28T15:56:12.770Z,22.20
2018-08-28T15:58:53.307Z,22.10
2018-08-28T16:01:33.834Z,22.00
2018-08-28T16:04:19.408Z,22.00
2018-08-28T16:07:01.612Z,22.00
2018-08-28T16:09:42.270Z,21.90
2018-08-28T16:12:22.838Z,21.80
2018-08-28T16:15:03.360Z,21.80
2018-08-28T16:17:45.708Z,21.70
2018-08-28T16:20:30.234Z,21.70
2018-08-28T16:23:44.253Z,21.70
2018-08-28T16:26:24.656Z,21.60
2018-08-28T16:29:05.180Z,21.70
2018-08-28T16:31:45.573Z,21.60
2018-08-28T16:34:27.580Z,21.60
2018-08-28T16:37:08.138Z,21.50
2018-08-28T16:39:49.533Z,21.50
2018-08-28T16:42:31.925Z,21.50
2018-08-28T16:45:12.298Z,21.40
2018-08-28T16:47:53.751Z,21.40
2018-08-28T16:50:35.342Z,21.40
2018-08-28T16:53:15.823Z,21.40
2018-08-28T16:55:59.641Z,21.40
2018-08-28T16:58:40.284Z,21.30
2018-08-28T17:01:21.342Z,21.30
2018-08-28T17:04:02.376Z,21.30
2018-08-28T17:06:43.022Z,21.30
2018-08-28T17:09:24.263Z,21.20
2018-08-28T17:12:05.225Z,21.20
2018-08-28T17:14:45.971Z,21.30
2018-08-28T17:17:29.640Z,21.20
2018-08-28T17:20:10.351Z,21.20
2018-08-28T17:22:53.897Z,21.20
2018-08-28T17:25:34.415Z,21.20
2018-08-28T17:28:15.019Z,21.20
2018-08-28T17:30:56.880Z,21.20
2018-08-28T17:33:37.495Z,21.10
2018-08-28T17:36:18.040Z,21.10
2018-08-28T17:39:01.273Z,21.10
2018-08-28T17:41:41.871Z,21.00
2018-08-28T17:44:22.471Z,21.00
2018-08-28T17:47:02.933Z,20.90
2018-08-28T17:49:43.444Z,20.80
2018-08-28T17:52:24.074Z,20.80
2018-08-28T17:55:04.545Z,20.70
2018-08-28T17:57:45.165Z,20.60
2018-08-28T18:00:27.607Z,20.50
2018-08-28T18:03:08.188Z,20.60
2018-08-28T18:05:48.813Z,20.40
2018-08-28T18:08:32.088Z,20.30
2018-08-28T18:11:14.026Z,20.30
2018-08-28T18:14:02.956Z,20.20
2018-08-28T18:16:43.676Z,20.20
2018-08-28T18:19:24.260Z,20.30
2018-08-28T18:22:05.337Z,20.30
2018-08-28T18:24:45.902Z,20.30
2018-08-28T18:27:27.244Z,20.30
2018-08-28T18:30:08.477Z,20.30
2018-08-28T18:32:49.083Z,20.20
2018-08-28T18:35:31.429Z,20.10
2018-08-28T18:38:13.727Z,20.10
2018-08-28T18:40:54.689Z,20.00
2018-08-28T18:44:13.118Z,20.00
2018-08-28T18:46:54.892Z,20.00
2018-08-28T18:49:35.418Z,19.90
2018-08-28T18:52:15.964Z,19.80
2018-08-28T18:55:01.784Z,19.80
2018-08-28T18:57:52.625Z,19.70
2018-08-28T19:00:36.690Z,19.70
2018-08-28T19:03:18.502Z,19.70
2018-08-28T19:09:13.690Z,19.60
2018-08-28T19:12:05.992Z,19.60
2018-08-28T19:14:53.630Z,19.70
2018-08-28T19:17:35.279Z,19.60
2018-08-28T19:20:22.871Z,19.60
2018-08-28T19:23:05.147Z,19.50
2018-08-28T19:25:45.713Z,19.50
2018-08-28T19:28:27.188Z,19.50
2018-08-28T19:31:07.654Z,19.50
2018-08-28T19:33:48.666Z,19.50
2018-08-28T19:36:31.157Z,19.50
2018-08-28T19:39:11.846Z,19.50
2018-08-28T19:41:52.518Z,19.50
2018-08-28T19:44:33.752Z,19.40
2018-08-28T19:47:14.472Z,19.40
2018-08-28T19:49:55.026Z,19.40
2018-08-28T19:52:44.472Z,19.40
2018-08-28T19:55:25.097Z,19.30
2018-08-28T19:58:05.645Z,19.30
2018-08-28T20:00:46.112Z,19.30
2018-08-28T20:03:27.213Z,19.30
2018-08-28T20:06:07.774Z,19.30
2018-08-28T20:08:48.281Z,19.30
2018-08-28T20:11:30.444Z,19.20
2018-08-28T20:14:11.000Z,19.20
2018-08-28T20:16:51.424Z,19.30
2018-08-28T20:19:33.155Z,19.20
2018-08-28T20:22:13.833Z,19.20
2018-08-28T20:24:54.525Z,19.20
2018-08-28T20:27:35.120Z,19.20
2018-08-28T20:30:15.763Z,19.20
2018-08-28T20:32:57.716Z,19.10
2018-08-28T20:35:38.284Z,19.00
2018-08-28T20:38:18.708Z,19.10
2018-08-28T20:41:01.481Z,19.10
2018-08-28T20:43:41.949Z,19.00
2018-08-28T20:46:22.535Z,19.00
2018-08-28T20:49:03.288Z,19.00
2018-08-28T20:51:44.108Z,19.10
2018-08-28T20:54:24.927Z,19.10
2018-08-28T20:57:05.709Z,19.10
2018-08-28T20:59:46.314Z,19.10
2018-08-28T21:02:28.888Z,19.10
2018-08-28T21:05:09.425Z,19.10
2018-08-28T21:07:50.449Z,19.10
2018-08-28T21:10:32.533Z,19.00
2018-08-28T21:13:12.986Z,19.00
2018-08-28T21:15:53.628Z,19.00
2018-08-28T21:18:34.243Z,19.00
2018-08-28T21:21:15.141Z,19.00
2018-08-28T21:23:55.800Z,19.00
2018-08-28T21:26:36.780Z,19.00
2018-08-28T21:29:17.259Z,19.00
2018-08-28T21:32:00.784Z,19.00
2018-08-28T21:34:41.565Z,19.10
2018-08-28T21:37:22.179Z,19.00
2018-08-28T21:40:04.088Z,19.00
2018-08-28T21:42:44.641Z,18.90
2018-08-28T21:45:25.228Z,18.90
2018-08-28T21:48:05.853Z,18.80
2018-08-28T21:50:46.418Z,18.80
2018-08-28T21:53:28.025Z,18.70
2018-08-28T21:56:08.534Z,18.60
2018-08-28T21:58:49.076Z,18.60
2018-08-28T22:01:31.925Z,18.60
2018-08-28T22:04:12.482Z,18.60
2018-08-28T22:06:58.463Z,18.60
2018-08-28T22:09:38.952Z,18.50
2018-08-28T22:12:19.367Z,18.50
2018-08-28T22:15:02.021Z,18.50
2018-08-28T22:17:42.927Z,18.40
2018-08-28T22:20:23.297Z,18.40
2018-08-28T22:23:03.931Z,18.40
2018-08-28T22:25:44.593Z,18.40
2018-08-28T22:28:25.243Z,18.30
2018-08-28T22:31:05.786Z,18.40
2018-08-28T22:33:46.200Z,18.30
2018-08-28T22:36:28.127Z,18.20
2018-08-28T22:39:08.657Z,18.30
2018-08-28T22:41:49.237Z,18.30
2018-08-28T22:44:31.961Z,18.20
2018-08-28T22:47:12.541Z,18.20
2018-08-28T22:49:53.064Z,18.10
2018-08-28T22:52:33.673Z,18.10
2018-08-28T22:55:14.259Z,18.00
2018-08-28T22:57:54.817Z,18.00
2018-08-28T23:00:35.372Z,18.00
2018-08-28T23:03:15.974Z,18.00
2018-08-28T23:05:57.884Z,17.90
2018-08-28T23:08:38.317Z,17.80
2018-08-28T23:11:18.795Z,17.80
2018-08-28T23:14:01.872Z,17.70
2018-08-28T23:16:42.428Z,17.70
2018-08-28T23:19:22.980Z,17.60
2018-08-28T23:22:03.631Z,17.50
2018-08-28T23:24:44.244Z,17.50
2018-08-28T23:27:24.856Z,17.50
2018-08-28T23:30:05.965Z,17.40
2018-08-28T23:32:46.792Z,17.30
2018-08-28T23:35:28.747Z,17.30
2018-08-28T23:38:09.262Z,17.20
2018-08-28T23:40:49.842Z,17.20
2018-08-28T23:43:31.849Z,17.20
2018-08-28T23:46:12.327Z,17.20
2018-08-28T23:48:52.876Z,17.20
2018-08-28T23:51:33.601Z,17.10
2018-08-28T23:54:14.104Z,17.10
2018-08-28T23:56:54.671Z,17.00
2018-08-28T23:59:35.252Z,16.90
